createdAt,value
2018-06-09T00:00:11.904Z,0.00
2018-06-09T00:01:11.917Z,0.00
2018-06-09T00:02:11.917Z,0.00
2018-06-09T00:03:11.926Z,0.00
2018-06-09T00:04:11.936Z,0.00
2018-06-09T00:05:11.940Z,0.00
2018-06-09T00:06:11.947Z,0.00
2018-06-09T00:07:11.954Z,0.00
2018-06-09T00:08:11.961Z,0.00
2018-06-09T00:09:11.969Z,0.00
2018-06-09T00:10:11.981Z,0.00
2018-06-09T00:11:11.985Z,0.00
2018-06-09T00:12:11.993Z,0.00
2018-06-09T00:13:12.000Z,0.00
2018-06-09T00:14:12.016Z,0.00
2018-06-09T00:15:12.023Z,0.00
2018-06-09T00:16:12.019Z,0.00
2018-06-09T00:17:12.030Z,0.00
2018-06-09T00:18:12.034Z,0.00
2018-06-09T00:19:12.046Z,0.00
2018-06-09T00:20:12.053Z,0.00
2018-06-09T00:21:12.079Z,0.00
2018-06-09T00:22:12.071Z,0.00
2018-06-09T00:23:12.075Z,0.00
2018-06-09T00:24:12.080Z,0.00
2018-06-09T00:25:12.093Z,0.00
2018-06-09T00:26:12.094Z,0.00
2018-06-09T00:27:12.105Z,0.00
2018-06-09T00:28:12.113Z,0.00
2018-06-09T00:29:12.117Z,0.00
2018-06-09T00:30:12.124Z,0.00
2018-06-09T00:31:12.138Z,0.00
2018-06-09T00:32:12.136Z,0.00
2018-06-09T00:33:12.151Z,0.00
2018-06-09T00:34:12.156Z,0.00
2018-06-09T00:35:12.164Z,0.00
2018-06-09T00:36:12.172Z,0.00
2018-06-09T00:37:12.173Z,0.00
2018-06-09T00:38:12.185Z,0.00
2018-06-09T00:39:12.195Z,0.00
2018-06-09T00:40:12.195Z,0.00
2018-06-09T00:41:12.213Z,0.00
2018-06-09T00:42:12.210Z,0.00
2018-06-09T00:43:12.228Z,0.00
2018-06-09T00:44:12.231Z,0.00
2018-06-09T00:45:12.235Z,0.00
2018-06-09T00:46:12.241Z,0.00
2018-06-09T00:47:12.248Z,0.00
2018-06-09T00:48:12.254Z,0.00
2018-06-09T00:49:12.263Z,0.00
2018-06-09T00:50:12.268Z,0.00
2018-06-09T00:51:12.279Z,0.00
2018-06-09T00:52:12.300Z,0.00
2018-06-09T00:53:12.291Z,0.00
2018-06-09T00:54:12.299Z,0.00
2018-06-09T00:55:12.307Z,0.00
2018-06-09T00:56:12.312Z,0.00
2018-06-09T00:57:12.318Z,0.00
2018-06-09T00:58:12.407Z,0.00
2018-06-09T00:59:12.334Z,0.00
2018-06-09T01:00:12.341Z,0.00
2018-06-09T01:01:12.347Z,0.00
2018-06-09T01:02:12.357Z,0.00
2018-06-09T01:03:12.366Z,0.00
2018-06-09T01:04:12.371Z,0.00
2018-06-09T01:05:12.382Z,0.00
2018-06-09T01:06:12.389Z,0.00
2018-06-09T01:07:12.397Z,0.00
2018-06-09T01:08:12.402Z,0.00
2018-06-09T01:09:12.409Z,0.00
2018-06-09T01:10:12.416Z,0.00
2018-06-09T01:11:12.425Z,0.00
2018-06-09T01:12:12.426Z,0.00
2018-06-09T01:13:12.437Z,0.00
2018-06-09T01:14:12.444Z,0.00
2018-06-09T01:15:12.452Z,0.00
2018-06-09T01:16:12.459Z,0.00
2018-06-09T01:17:12.461Z,0.00
2018-06-09T01:18:12.473Z,0.00
2018-06-09T01:19:12.487Z,0.00
2018-06-09T01:20:12.490Z,0.00
2018-06-09T01:21:12.492Z,0.00
2018-06-09T01:22:12.502Z,0.00
2018-06-09T01:23:12.506Z,0.00
2018-06-09T01:24:12.518Z,0.00
2018-06-09T01:25:12.528Z,0.00
2018-06-09T01:26:12.528Z,0.00
2018-06-09T01:27:12.536Z,0.00
2018-06-09T01:28:12.544Z,0.00
2018-06-09T01:29:12.551Z,0.00
2018-06-09T01:30:12.558Z,0.00
2018-06-09T01:31:12.565Z,0.00
2018-06-09T01:32:12.575Z,0.00
2018-06-09T01:33:12.581Z,0.00
2018-06-09T01:34:12.584Z,0.00
2018-06-09T01:35:12.597Z,0.00
2018-06-09T01:36:12.604Z,0.00
2018-06-09T01:37:12.610Z,0.00
2018-06-09T01:38:12.612Z,0.00
2018-06-09T01:39:12.628Z,0.00
2018-06-09T01:40:12.631Z,0.00
2018-06-09T01:41:12.639Z,0.00
2018-06-09T01:42:12.644Z,0.00
2018-06-09T01:43:12.656Z,0.00
2018-06-09T01:44:12.666Z,0.00
2018-06-09T01:45:12.666Z,0.00
2018-06-09T01:46:12.679Z,0.00
2018-06-09T01:47:12.677Z,0.00
2018-06-09T01:48:12.683Z,0.00
2018-06-09T01:49:12.691Z,0.00
2018-06-09T01:50:12.704Z,0.00
2018-06-09T01:51:12.707Z,0.00
2018-06-09T01:52:12.713Z,0.00
2018-06-09T01:53:12.720Z,0.00
2018-06-09T01:54:12.727Z,0.00
2018-06-09T01:55:12.736Z,0.00
2018-06-09T01:56:12.740Z,0.00
2018-06-09T01:57:12.753Z,0.00
2018-06-09T01:58:12.756Z,0.00
2018-06-09T01:59:12.763Z,0.00
2018-06-09T02:00:12.769Z,0.00
2018-06-09T02:01:12.773Z,0.00
2018-06-09T02:02:12.785Z,0.00
2018-06-09T02:03:12.797Z,0.00
2018-06-09T02:04:12.795Z,0.00
2018-06-09T02:05:12.806Z,0.00
2018-06-09T02:06:12.808Z,0.00
2018-06-09T02:07:12.817Z,0.00
2018-06-09T02:08:12.823Z,0.00
2018-06-09T02:09:12.833Z,0.00
2018-06-09T02:10:12.842Z,0.00
2018-06-09T02:11:12.845Z,0.00
2018-06-09T02:12:12.849Z,0.00
2018-06-09T02:13:12.858Z,0.00
2018-06-09T02:14:12.868Z,0.00
2018-06-09T02:15:12.873Z,0.00
2018-06-09T02:16:12.879Z,0.00
2018-06-09T02:17:12.887Z,0.00
2018-06-09T02:18:12.894Z,0.00
2018-06-09T02:19:12.902Z,0.00
2018-06-09T02:20:12.907Z,0.00
2018-06-09T02:21:12.915Z,0.00
2018-06-09T02:22:12.920Z,0.00
2018-06-09T02:23:12.927Z,0.00
2018-06-09T02:24:12.933Z,0.00
2018-06-09T02:25:12.943Z,0.00
2018-06-09T02:26:12.954Z,0.00
2018-06-09T02:27:12.957Z,0.00
2018-06-09T02:28:12.966Z,0.00
2018-06-09T02:29:12.969Z,0.00
2018-06-09T02:30:12.977Z,0.00
2018-06-09T02:31:12.983Z,0.00
2018-06-09T02:32:12.991Z,0.00
2018-06-09T02:33:13.001Z,0.00
2018-06-09T02:34:13.007Z,0.00
2018-06-09T02:35:13.026Z,0.00
2018-06-09T02:36:13.019Z,0.00
2018-06-09T02:37:13.026Z,0.00
2018-06-09T02:38:13.039Z,0.00
2018-06-09T02:39:13.040Z,0.00
2018-06-09T02:40:13.046Z,0.00
2018-06-09T02:41:13.060Z,0.00
2018-06-09T02:42:13.064Z,0.00
2018-06-09T02:43:13.066Z,0.00
2018-06-09T02:44:13.074Z,0.00
2018-06-09T02:45:13.087Z,0.00
2018-06-09T02:46:13.086Z,0.00
2018-06-09T02:47:13.099Z,0.00
2018-06-09T02:48:13.107Z,0.00
2018-06-09T02:49:13.107Z,0.00
2018-06-09T02:50:13.117Z,0.00
2018-06-09T02:51:13.123Z,0.00
2018-06-09T02:52:13.132Z,0.00
2018-06-09T02:53:13.134Z,0.00
2018-06-09T02:54:13.142Z,0.00
2018-06-09T02:55:13.155Z,0.00
2018-06-09T02:56:13.160Z,0.00
2018-06-09T02:57:13.166Z,0.00
2018-06-09T02:58:13.172Z,0.00
2018-06-09T02:59:13.178Z,0.00
2018-06-09T03:00:13.185Z,0.00
2018-06-09T03:01:13.191Z,0.00
2018-06-09T03:02:13.200Z,0.00
2018-06-09T03:03:13.203Z,0.00
2018-06-09T03:04:13.211Z,0.00
2018-06-09T03:05:13.222Z,0.00
2018-06-09T03:06:13.238Z,0.00
2018-06-09T03:07:13.237Z,0.00
2018-06-09T03:08:13.239Z,0.00
2018-06-09T03:09:13.251Z,0.00
2018-06-09T03:10:13.255Z,0.00
2018-06-09T03:11:13.262Z,0.00
2018-06-09T03:12:13.273Z,0.00
2018-06-09T03:13:13.276Z,0.00
2018-06-09T03:14:13.279Z,0.00
2018-06-09T03:15:13.305Z,0.00
2018-06-09T03:16:13.292Z,0.00
2018-06-09T03:17:13.301Z,0.00
2018-06-09T03:18:13.306Z,0.00
2018-06-09T03:19:13.314Z,0.00
2018-06-09T03:20:13.324Z,0.00
2018-06-09T03:21:13.326Z,0.00
2018-06-09T03:22:13.335Z,0.00
2018-06-09T03:23:13.345Z,0.00
2018-06-09T03:24:13.346Z,0.00
2018-06-09T03:25:13.356Z,0.00
2018-06-09T03:26:13.361Z,0.00
2018-06-09T03:27:13.369Z,0.00
2018-06-09T03:28:13.379Z,0.00
2018-06-09T03:29:13.383Z,0.00
2018-06-09T03:30:13.391Z,0.00
2018-06-09T03:31:13.403Z,0.00
2018-06-09T03:32:13.403Z,5.63
2018-06-09T03:33:13.412Z,5.63
2018-06-09T03:34:13.416Z,5.63
2018-06-09T03:35:13.423Z,5.63
2018-06-09T03:36:13.433Z,5.63
2018-06-09T03:37:13.437Z,5.63
2018-06-09T03:38:13.447Z,5.63
2018-06-09T03:39:13.452Z,5.63
2018-06-09T03:40:13.466Z,5.63
2018-06-09T03:41:13.464Z,5.63
2018-06-09T03:42:13.479Z,5.63
2018-06-09T03:43:13.527Z,5.63
2018-06-09T03:44:13.487Z,11.25
2018-06-09T03:45:13.489Z,11.25
2018-06-09T03:46:13.497Z,11.25
2018-06-09T03:47:13.511Z,11.25
2018-06-09T03:48:13.512Z,11.25
2018-06-09T03:49:13.520Z,11.25
2018-06-09T03:50:13.533Z,11.25
2018-06-09T03:51:13.552Z,11.25
2018-06-09T03:52:13.538Z,11.25
2018-06-09T03:53:13.551Z,11.25
2018-06-09T03:54:13.597Z,16.88
2018-06-09T03:55:13.559Z,16.88
2018-06-09T03:56:13.563Z,16.88
2018-06-09T03:57:13.577Z,16.88
2018-06-09T03:58:13.580Z,16.88
2018-06-09T03:59:13.602Z,16.88
2018-06-09T04:00:13.591Z,16.88
2018-06-09T04:01:13.600Z,16.88
2018-06-09T04:02:13.607Z,16.88
2018-06-09T04:03:13.614Z,16.88
2018-06-09T04:04:13.621Z,16.88
2018-06-09T04:05:13.625Z,22.50
2018-06-09T04:06:13.643Z,22.50
2018-06-09T04:07:13.641Z,22.50
2018-06-09T04:08:13.654Z,22.50
2018-06-09T04:09:13.653Z,22.50
2018-06-09T04:10:13.666Z,22.50
2018-06-09T04:11:13.677Z,22.50
2018-06-09T04:12:13.677Z,22.50
2018-06-09T04:13:13.693Z,28.13
2018-06-09T04:14:13.695Z,28.13
2018-06-09T04:15:13.704Z,28.13
2018-06-09T04:16:13.699Z,28.13
2018-06-09T04:17:13.710Z,28.13
2018-06-09T04:18:13.724Z,28.13
2018-06-09T04:19:13.727Z,28.13
2018-06-09T04:20:13.733Z,28.13
2018-06-09T04:21:13.739Z,28.13
2018-06-09T04:22:13.753Z,33.75
2018-06-09T04:23:13.756Z,33.75
2018-06-09T04:24:13.765Z,33.75
2018-06-09T04:25:13.769Z,33.75
2018-06-09T04:26:13.771Z,33.75
2018-06-09T04:27:13.783Z,33.75
2018-06-09T04:28:13.794Z,33.75
2018-06-09T04:29:13.796Z,33.75
2018-06-09T04:30:13.810Z,33.75
2018-06-09T04:31:13.807Z,33.75
2018-06-09T04:32:13.818Z,39.38
2018-06-09T04:33:13.828Z,39.38
2018-06-09T04:34:13.829Z,39.38
2018-06-09T04:35:13.835Z,39.38
2018-06-09T04:36:13.841Z,39.38
2018-06-09T04:37:13.849Z,39.38
2018-06-09T04:38:13.853Z,39.38
2018-06-09T04:39:13.861Z,39.38
2018-06-09T04:40:13.873Z,39.38
2018-06-09T04:41:13.891Z,39.38
2018-06-09T04:42:13.881Z,39.38
2018-06-09T04:43:13.888Z,45.00
2018-06-09T04:44:13.894Z,45.00
2018-06-09T04:45:13.900Z,45.00
2018-06-09T04:46:13.912Z,45.00
2018-06-09T04:47:13.914Z,45.00
2018-06-09T04:48:13.924Z,45.00
2018-06-09T04:49:13.935Z,50.63
2018-06-09T04:50:13.941Z,50.63
2018-06-09T04:51:13.943Z,50.63
2018-06-09T04:52:13.981Z,50.63
2018-06-09T04:53:13.954Z,50.63
2018-06-09T04:54:13.961Z,50.63
2018-06-09T04:55:13.973Z,50.63
2018-06-09T04:56:13.977Z,50.63
2018-06-09T04:57:13.987Z,50.63
2018-06-09T04:58:13.992Z,50.63
2018-06-09T04:59:14.005Z,50.63
2018-06-09T05:00:14.009Z,50.63
2018-06-09T05:01:14.016Z,56.25
2018-06-09T05:02:14.024Z,56.25
2018-06-09T05:03:14.032Z,56.25
2018-06-09T05:04:14.034Z,56.25
2018-06-09T05:05:14.045Z,56.25
2018-06-09T05:06:14.058Z,56.25
2018-06-09T05:07:14.107Z,56.25
2018-06-09T05:08:14.072Z,50.63
2018-06-09T05:09:14.071Z,50.63
2018-06-09T05:10:14.081Z,50.63
2018-06-09T05:11:14.086Z,56.25
2018-06-09T05:12:14.096Z,56.25
2018-06-09T05:13:14.107Z,56.25
2018-06-09T05:14:14.108Z,56.25
2018-06-09T05:15:14.114Z,56.25
2018-06-09T05:16:14.120Z,56.25
2018-06-09T05:17:14.130Z,56.25
2018-06-09T05:18:14.137Z,56.25
2018-06-09T05:19:14.144Z,56.25
2018-06-09T05:20:14.148Z,56.25
2018-06-09T05:21:14.164Z,61.88
2018-06-09T05:22:14.162Z,61.88
2018-06-09T05:23:14.175Z,61.88
2018-06-09T05:24:14.179Z,61.88
2018-06-09T05:25:14.185Z,61.88
2018-06-09T05:26:14.203Z,61.88
2018-06-09T05:27:14.201Z,61.88
2018-06-09T05:28:14.210Z,61.88
2018-06-09T05:29:14.216Z,61.88
2018-06-09T05:30:14.228Z,61.88
2018-06-09T05:31:14.234Z,61.88
2018-06-09T05:32:14.248Z,61.88
2018-06-09T05:33:14.246Z,61.88
2018-06-09T05:34:14.255Z,67.50
2018-06-09T05:35:14.259Z,67.50
2018-06-09T05:36:14.268Z,67.50
2018-06-09T05:37:14.276Z,67.50
2018-06-09T05:38:14.281Z,67.50
2018-06-09T05:39:14.294Z,67.50
2018-06-09T05:40:14.298Z,67.50
2018-06-09T05:41:14.308Z,67.50
2018-06-09T05:42:14.313Z,67.50
2018-06-09T05:43:14.322Z,73.13
2018-06-09T05:44:14.328Z,67.50
2018-06-09T05:45:14.335Z,67.50
2018-06-09T05:46:14.343Z,67.50
2018-06-09T05:47:14.355Z,67.50
2018-06-09T05:48:14.359Z,67.50
2018-06-09T05:49:14.365Z,61.88
2018-06-09T05:50:14.375Z,67.50
2018-06-09T05:51:14.387Z,67.50
2018-06-09T05:52:14.397Z,61.88
2018-06-09T05:53:14.398Z,61.88
2018-06-09T05:54:14.405Z,61.88
2018-06-09T05:55:14.412Z,67.50
2018-06-09T05:56:14.419Z,61.88
2018-06-09T05:57:14.434Z,61.88
2018-06-09T05:58:14.434Z,61.88
2018-06-09T05:59:14.450Z,61.88
2018-06-09T06:00:14.449Z,67.50
2018-06-09T06:01:14.458Z,67.50
2018-06-09T06:02:14.466Z,67.50
2018-06-09T06:03:14.481Z,73.13
2018-06-09T06:04:14.482Z,78.75
2018-06-09T06:05:14.495Z,84.38
2018-06-09T06:06:14.500Z,84.38
2018-06-09T06:07:14.503Z,84.38
2018-06-09T06:08:14.512Z,84.38
2018-06-09T06:09:14.524Z,84.38
2018-06-09T06:10:14.526Z,84.38
2018-06-09T06:11:14.539Z,84.38
2018-06-09T06:12:14.545Z,84.38
2018-06-09T06:13:14.550Z,78.75
2018-06-09T06:14:14.558Z,84.38
2018-06-09T06:15:14.568Z,78.75
2018-06-09T06:16:14.571Z,78.75
2018-06-09T06:17:14.583Z,78.75
2018-06-09T06:18:14.586Z,78.75
2018-06-09T06:19:14.597Z,78.75
2018-06-09T06:20:14.607Z,78.75
2018-06-09T06:21:14.615Z,78.75
2018-06-09T06:22:14.627Z,78.75
2018-06-09T06:23:14.628Z,78.75
2018-06-09T06:24:14.639Z,78.75
2018-06-09T06:25:14.644Z,78.75
2018-06-09T06:26:14.654Z,78.75
2018-06-09T06:27:14.663Z,78.75
2018-06-09T06:28:14.671Z,78.75
2018-06-09T06:29:14.680Z,84.38
2018-06-09T06:30:14.686Z,78.75
2018-06-09T06:31:14.692Z,73.13
2018-06-09T06:32:14.704Z,84.38
2018-06-09T06:33:14.709Z,84.38
2018-06-09T06:34:14.717Z,84.38
2018-06-09T06:35:14.725Z,84.38
2018-06-09T06:36:14.739Z,84.38
2018-06-09T06:37:14.741Z,84.38
2018-06-09T06:38:14.750Z,84.38
2018-06-09T06:39:14.763Z,90.00
2018-06-09T06:40:14.777Z,90.00
2018-06-09T06:41:14.778Z,90.00
2018-06-09T06:42:14.782Z,90.00
2018-06-09T06:43:14.791Z,95.63
2018-06-09T06:44:14.801Z,84.38
2018-06-09T06:45:14.817Z,95.63
2018-06-09T06:46:14.824Z,95.63
2018-06-09T06:47:14.843Z,90.00
2018-06-09T06:48:14.837Z,90.00
2018-06-09T06:49:14.843Z,95.63
2018-06-09T06:50:14.875Z,90.00
2018-06-09T06:51:14.860Z,90.00
2018-06-09T06:52:14.867Z,84.38
2018-06-09T06:53:14.875Z,78.75
2018-06-09T06:54:14.885Z,90.00
2018-06-09T06:55:14.905Z,90.00
2018-06-09T06:56:14.900Z,90.00
2018-06-09T06:57:14.908Z,90.00
2018-06-09T06:58:14.918Z,90.00
2018-06-09T06:59:14.934Z,90.00
2018-06-09T07:00:14.932Z,95.63
2018-06-09T07:01:14.947Z,90.00
2018-06-09T07:02:14.951Z,90.00
2018-06-09T07:03:14.959Z,78.75
2018-06-09T07:04:14.983Z,78.75
2018-06-09T07:05:14.980Z,84.38
2018-06-09T07:06:14.989Z,78.75
2018-06-09T07:07:15.004Z,78.75
2018-06-09T07:08:15.000Z,78.75
2018-06-09T07:09:15.016Z,73.13
2018-06-09T07:10:15.024Z,73.13
2018-06-09T07:11:15.036Z,73.13
2018-06-09T07:12:15.044Z,78.75
2018-06-09T07:13:15.051Z,73.13
2018-06-09T07:14:15.055Z,73.13
2018-06-09T07:15:15.072Z,73.13
2018-06-09T07:16:15.070Z,73.13
2018-06-09T07:17:15.081Z,73.13
2018-06-09T07:18:15.097Z,84.38
2018-06-09T07:19:15.097Z,95.63
2018-06-09T07:20:15.110Z,101.25
2018-06-09T07:21:15.125Z,101.25
2018-06-09T07:22:15.172Z,90.00
2018-06-09T07:23:15.166Z,90.00
2018-06-09T07:24:15.157Z,84.38
2018-06-09T07:25:15.149Z,101.25
2018-06-09T07:26:15.155Z,101.25
2018-06-09T07:27:15.173Z,90.00
2018-06-09T07:28:15.174Z,101.25
2018-06-09T07:29:15.188Z,90.00
2018-06-09T07:30:15.197Z,95.63
2018-06-09T07:31:15.202Z,101.25
2018-06-09T07:32:15.206Z,101.25
2018-06-09T07:33:15.226Z,101.25
2018-06-09T07:34:15.226Z,101.25
2018-06-09T07:35:15.295Z,101.25
2018-06-09T07:36:15.246Z,101.25
2018-06-09T07:37:15.261Z,101.25
2018-06-09T07:38:15.274Z,101.25
2018-06-09T07:39:15.276Z,106.88
2018-06-09T07:40:15.280Z,101.25
2018-06-09T07:41:15.288Z,95.63
2018-06-09T07:42:15.295Z,95.63
2018-06-09T07:43:15.317Z,95.63
2018-06-09T07:44:15.314Z,95.63
2018-06-09T07:45:15.333Z,95.63
2018-06-09T07:46:15.332Z,101.25
2018-06-09T07:47:15.356Z,101.25
2018-06-09T07:48:15.357Z,95.63
2018-06-09T07:49:15.374Z,101.25
2018-06-09T07:50:15.368Z,106.88
2018-06-09T07:51:15.393Z,101.25
2018-06-09T07:52:15.389Z,95.63
2018-06-09T07:53:15.402Z,84.38
2018-06-09T07:54:15.406Z,90.00
2018-06-09T07:55:15.417Z,101.25
2018-06-09T07:56:15.425Z,106.88
2018-06-09T07:57:15.435Z,106.88
2018-06-09T07:58:15.443Z,101.25
2018-06-09T07:59:15.456Z,106.88
2018-06-09T08:00:15.461Z,112.50
2018-06-09T08:01:15.475Z,118.13
2018-06-09T08:02:15.489Z,123.75
2018-06-09T08:03:15.493Z,129.38
2018-06-09T08:04:15.494Z,106.88
2018-06-09T08:05:15.525Z,118.13
2018-06-09T08:06:15.522Z,95.63
2018-06-09T08:07:15.523Z,118.13
2018-06-09T08:08:15.533Z,101.25
2018-06-09T08:09:15.543Z,106.88
2018-06-09T08:10:15.556Z,123.75
2018-06-09T08:11:15.563Z,129.38
2018-06-09T08:12:15.570Z,129.38
2018-06-09T08:13:15.584Z,123.75
2018-06-09T08:14:15.599Z,90.00
2018-06-09T08:15:15.602Z,84.38
2018-06-09T08:16:15.612Z,84.38
2018-06-09T08:17:15.627Z,78.75
2018-06-09T08:18:15.635Z,78.75
2018-06-09T08:19:15.639Z,78.75
2018-06-09T08:20:15.647Z,78.75
2018-06-09T08:21:15.657Z,78.75
2018-06-09T08:22:15.677Z,78.75
2018-06-09T08:23:15.676Z,78.75
2018-06-09T08:24:15.684Z,78.75
2018-06-09T08:25:15.695Z,78.75
2018-06-09T08:26:15.714Z,84.38
2018-06-09T08:27:15.723Z,106.88
2018-06-09T08:28:15.726Z,118.13
2018-06-09T08:29:15.733Z,112.50
2018-06-09T08:30:15.741Z,112.50
2018-06-09T08:31:15.752Z,118.13
2018-06-09T08:32:15.762Z,118.13
2018-06-09T08:33:15.775Z,118.13
2018-06-09T08:34:15.792Z,118.13
2018-06-09T08:35:15.794Z,118.13
2018-06-09T08:36:15.824Z,123.75
2018-06-09T08:37:15.816Z,123.75
2018-06-09T08:38:15.821Z,123.75
2018-06-09T08:39:15.834Z,129.38
2018-06-09T08:40:15.849Z,95.63
2018-06-09T08:41:15.852Z,112.50
2018-06-09T08:42:15.865Z,129.38
2018-06-09T08:43:15.868Z,101.25
2018-06-09T08:44:15.880Z,95.63
2018-06-09T08:45:15.891Z,84.38
2018-06-09T08:46:15.902Z,84.38
2018-06-09T08:47:15.913Z,84.38
2018-06-09T08:48:15.917Z,84.38
2018-06-09T08:49:15.929Z,84.38
2018-06-09T08:50:15.942Z,84.38
2018-06-09T08:51:15.953Z,84.38
2018-06-09T08:52:15.962Z,84.38
2018-06-09T08:53:15.976Z,84.38
2018-06-09T08:54:15.987Z,84.38
2018-06-09T08:55:15.992Z,84.38
2018-06-09T08:56:16.006Z,78.75
2018-06-09T08:57:16.017Z,84.38
2018-06-09T08:58:16.026Z,78.75
2018-06-09T08:59:16.028Z,78.75
2018-06-09T09:00:16.042Z,84.38
2018-06-09T09:01:16.049Z,84.38
2018-06-09T09:02:16.060Z,118.13
2018-06-09T09:03:16.090Z,135.00
2018-06-09T09:04:16.077Z,135.00
2018-06-09T09:05:16.085Z,135.00
2018-06-09T09:06:16.116Z,135.00
2018-06-09T09:07:16.107Z,135.00
2018-06-09T09:08:16.118Z,135.00
2018-06-09T09:09:16.127Z,135.00
2018-06-09T09:10:16.143Z,135.00
2018-06-09T09:11:16.150Z,129.38
2018-06-09T09:12:16.156Z,118.13
2018-06-09T09:13:16.172Z,101.25
2018-06-09T09:14:16.183Z,90.00
2018-06-09T09:15:16.196Z,84.38
2018-06-09T09:16:16.196Z,118.13
2018-06-09T09:17:16.208Z,129.38
2018-06-09T09:18:16.225Z,129.38
2018-06-09T09:19:16.239Z,123.75
2018-06-09T09:20:16.246Z,129.38
2018-06-09T09:21:16.252Z,118.13
2018-06-09T09:22:16.266Z,78.75
2018-06-09T09:23:16.274Z,73.13
2018-06-09T09:24:16.283Z,73.13
2018-06-09T09:25:16.301Z,73.13
2018-06-09T09:26:16.316Z,73.13
2018-06-09T09:27:16.314Z,78.75
2018-06-09T09:28:16.328Z,135.00
2018-06-09T09:29:16.333Z,129.38
2018-06-09T09:30:16.345Z,129.38
2018-06-09T09:31:16.359Z,129.38
2018-06-09T09:32:16.369Z,135.00
2018-06-09T09:33:16.377Z,135.00
2018-06-09T09:34:16.394Z,135.00
2018-06-09T09:35:16.407Z,129.38
2018-06-09T09:36:16.409Z,140.63
2018-06-09T09:37:16.423Z,146.25
2018-06-09T09:38:16.427Z,146.25
2018-06-09T09:39:16.437Z,123.75
2018-06-09T09:40:16.449Z,95.63
2018-06-09T09:41:16.463Z,84.38
2018-06-09T09:42:16.470Z,84.38
2018-06-09T09:43:16.485Z,146.25
2018-06-09T09:44:16.498Z,151.88
2018-06-09T09:45:16.503Z,163.13
2018-06-09T09:46:16.540Z,163.13
2018-06-09T09:47:16.538Z,135.00
2018-06-09T09:48:16.534Z,151.88
2018-06-09T09:49:16.546Z,118.13
2018-06-09T09:50:16.558Z,140.63
2018-06-09T09:51:16.569Z,123.75
2018-06-09T09:52:16.582Z,135.00
2018-06-09T09:53:16.591Z,95.63
2018-06-09T09:54:16.602Z,112.50
2018-06-09T09:55:16.611Z,118.13
2018-06-09T09:56:16.620Z,135.00
2018-06-09T09:57:16.633Z,135.00
2018-06-09T09:58:16.646Z,135.00
2018-06-09T09:59:16.652Z,135.00
2018-06-09T10:00:16.666Z,135.00
2018-06-09T10:01:16.677Z,140.63
2018-06-09T10:02:16.690Z,140.63
2018-06-09T10:03:16.703Z,146.25
2018-06-09T10:04:16.712Z,146.25
2018-06-09T10:05:16.723Z,151.88
2018-06-09T10:06:16.734Z,146.25
2018-06-09T10:07:16.745Z,151.88
2018-06-09T10:08:16.756Z,140.63
2018-06-09T10:09:16.765Z,129.38
2018-06-09T10:10:16.782Z,151.88
2018-06-09T10:11:16.785Z,157.50
2018-06-09T10:12:16.796Z,135.00
2018-06-09T10:13:16.807Z,84.38
2018-06-09T10:14:16.819Z,84.38
2018-06-09T10:15:16.837Z,78.75
2018-06-09T10:16:16.845Z,78.75
2018-06-09T10:17:16.857Z,78.75
2018-06-09T10:18:16.863Z,84.38
2018-06-09T10:19:16.875Z,95.63
2018-06-09T10:20:16.885Z,163.13
2018-06-09T10:21:16.905Z,157.50
2018-06-09T10:22:16.906Z,163.13
2018-06-09T10:23:16.924Z,168.75
2018-06-09T10:24:16.936Z,157.50
2018-06-09T10:25:16.943Z,118.13
2018-06-09T10:26:16.958Z,106.88
2018-06-09T10:27:16.964Z,123.75
2018-06-09T10:28:16.975Z,163.13
2018-06-09T10:29:16.987Z,174.38
2018-06-09T10:30:16.998Z,174.38
2018-06-09T10:31:17.014Z,185.63
2018-06-09T10:32:17.025Z,191.25
2018-06-09T10:33:17.032Z,196.88
2018-06-09T10:34:17.046Z,191.25
2018-06-09T10:35:17.059Z,196.88
2018-06-09T10:36:17.066Z,196.88
2018-06-09T10:37:17.080Z,191.25
2018-06-09T10:38:17.090Z,191.25
2018-06-09T10:39:17.111Z,191.25
2018-06-09T10:40:17.116Z,185.63
2018-06-09T10:41:17.125Z,185.63
2018-06-09T10:42:17.148Z,185.63
2018-06-09T10:43:17.157Z,180.00
2018-06-09T10:44:17.164Z,180.00
2018-06-09T10:45:17.199Z,180.00
2018-06-09T10:46:17.183Z,185.63
2018-06-09T10:47:17.199Z,191.25
2018-06-09T10:48:17.210Z,191.25
2018-06-09T10:49:17.222Z,191.25
2018-06-09T10:50:17.234Z,191.25
2018-06-09T10:51:17.247Z,185.63
2018-06-09T10:52:17.259Z,185.63
2018-06-09T10:53:17.267Z,185.63
2018-06-09T10:54:17.284Z,180.00
2018-06-09T10:55:17.290Z,180.00
2018-06-09T10:56:17.301Z,174.38
2018-06-09T10:57:17.337Z,174.38
2018-06-09T10:58:17.334Z,174.38
2018-06-09T10:59:17.338Z,168.75
2018-06-09T11:00:17.357Z,151.88
2018-06-09T11:01:17.363Z,151.88
2018-06-09T11:02:17.375Z,90.00
2018-06-09T11:03:17.390Z,90.00
2018-06-09T11:04:17.399Z,135.00
2018-06-09T11:05:17.425Z,168.75
2018-06-09T11:06:17.427Z,168.75
2018-06-09T11:07:17.436Z,112.50
2018-06-09T11:08:17.453Z,90.00
2018-06-09T11:09:17.465Z,168.75
2018-06-09T11:10:17.475Z,168.75
2018-06-09T11:11:17.494Z,163.13
2018-06-09T11:12:17.501Z,168.75
2018-06-09T11:13:17.511Z,168.75
2018-06-09T11:14:17.526Z,168.75
2018-06-09T11:15:17.533Z,168.75
2018-06-09T11:16:17.553Z,168.75
2018-06-09T11:17:17.564Z,174.38
2018-06-09T11:18:17.578Z,174.38
2018-06-09T11:19:17.582Z,174.38
2018-06-09T11:20:17.596Z,174.38
2018-06-09T11:21:17.607Z,180.00
2018-06-09T11:22:17.621Z,180.00
2018-06-09T11:23:17.634Z,185.63
2018-06-09T11:24:17.644Z,185.63
2018-06-09T11:25:17.665Z,185.63
2018-06-09T11:26:17.673Z,185.63
2018-06-09T11:27:17.684Z,185.63
2018-06-09T11:28:17.697Z,185.63
2018-06-09T11:29:17.706Z,185.63
2018-06-09T11:30:17.726Z,185.63
2018-06-09T11:31:17.735Z,185.63
2018-06-09T11:32:17.756Z,185.63
2018-06-09T11:33:17.761Z,185.63
2018-06-09T11:34:17.776Z,180.00
2018-06-09T11:35:17.782Z,180.00
2018-06-09T11:36:17.798Z,185.63
2018-06-09T11:37:17.812Z,191.25
2018-06-09T11:38:17.819Z,191.25
2018-06-09T11:39:17.838Z,191.25
2018-06-09T11:40:17.851Z,191.25
2018-06-09T11:41:17.862Z,95.63
2018-06-09T11:42:17.871Z,129.38
2018-06-09T11:43:17.888Z,185.63
2018-06-09T11:44:17.894Z,112.50
2018-06-09T11:45:17.909Z,157.50
2018-06-09T11:46:17.924Z,180.00
2018-06-09T11:47:17.937Z,180.00
2018-06-09T11:48:17.963Z,185.63
2018-06-09T11:49:17.961Z,180.00
2018-06-09T11:50:17.996Z,185.63
2018-06-09T11:51:17.986Z,185.63
2018-06-09T11:52:18.000Z,185.63
2018-06-09T11:53:18.012Z,185.63
2018-06-09T11:54:18.022Z,180.00
2018-06-09T11:55:18.039Z,180.00
2018-06-09T11:56:18.053Z,185.63
2018-06-09T11:57:18.064Z,185.63
2018-06-09T11:58:18.074Z,185.63
2018-06-09T11:59:18.087Z,185.63
2018-06-09T12:00:18.101Z,185.63
2018-06-09T12:01:18.108Z,185.63
2018-06-09T12:02:18.124Z,180.00
2018-06-09T12:03:18.141Z,180.00
2018-06-09T12:04:18.152Z,180.00
2018-06-09T12:05:18.164Z,185.63
2018-06-09T12:06:18.188Z,185.63
2018-06-09T12:07:18.189Z,191.25
2018-06-09T12:08:18.201Z,191.25
2018-06-09T12:09:18.221Z,191.25
2018-06-09T12:10:18.237Z,191.25
2018-06-09T12:11:18.242Z,191.25
2018-06-09T12:12:18.257Z,185.63
2018-06-09T12:13:18.266Z,185.63
2018-06-09T12:14:18.278Z,185.63
2018-06-09T12:15:18.295Z,185.63
2018-06-09T12:16:18.304Z,185.63
2018-06-09T12:17:18.368Z,185.63
2018-06-09T12:18:18.333Z,185.63
2018-06-09T12:19:18.343Z,185.63
2018-06-09T12:20:18.355Z,185.63
2018-06-09T12:21:18.371Z,185.63
2018-06-09T12:22:18.382Z,191.25
2018-06-09T12:23:18.399Z,191.25
2018-06-09T12:24:18.410Z,196.88
2018-06-09T12:25:18.427Z,191.25
2018-06-09T12:26:18.439Z,191.25
2018-06-09T12:27:18.447Z,196.88
2018-06-09T12:28:18.459Z,196.88
2018-06-09T12:29:18.473Z,191.25
2018-06-09T12:30:18.492Z,180.00
2018-06-09T12:31:18.504Z,185.63
2018-06-09T12:32:18.514Z,168.75
2018-06-09T12:33:18.533Z,168.75
2018-06-09T12:34:18.543Z,168.75
2018-06-09T12:35:18.552Z,140.63
2018-06-09T12:36:18.566Z,101.25
2018-06-09T12:37:18.583Z,106.88
2018-06-09T12:38:18.596Z,140.63
2018-06-09T12:39:18.607Z,135.00
2018-06-09T12:40:18.622Z,123.75
2018-06-09T12:41:18.633Z,118.13
2018-06-09T12:42:18.645Z,118.13
2018-06-09T12:43:18.661Z,106.88
2018-06-09T12:44:18.675Z,101.25
2018-06-09T12:45:18.682Z,101.25
2018-06-09T12:46:18.696Z,90.00
2018-06-09T12:47:18.711Z,90.00
2018-06-09T12:48:18.718Z,84.38
2018-06-09T12:49:18.735Z,84.38
2018-06-09T12:50:18.749Z,78.75
2018-06-09T12:51:18.765Z,78.75